createdAt,value
2018-12-15T00:00:16.286Z,-1.00
2018-12-15T00:02:42.989Z,-1.00
2018-12-15T00:05:09.712Z,-0.90
2018-12-15T00:07:36.402Z,-0.90
2018-12-15T00:10:03.491Z,-0.90
2018-12-15T00:12:30.190Z,-0.90
2018-12-15T00:14:56.910Z,-0.90
2018-12-15T00:17:23.642Z,-0.90
2018-12-15T00:19:50.344Z,-0.90
2018-12-15T00:22:17.065Z,-0.80
2018-12-15T00:24:43.773Z,-0.80
2018-12-15T00:27:10.498Z,-0.80
2018-12-15T00:29:37.198Z,-0.90
2018-12-15T00:32:03.918Z,-0.90
2018-12-15T00:34:30.619Z,-1.00
2018-12-15T00:36:57.342Z,-1.00
2018-12-15T00:39:24.070Z,-1.00
2018-12-15T00:41:50.794Z,-1.00
2018-12-15T00:44:17.495Z,-1.00
2018-12-15T00:46:44.218Z,-1.00
2018-12-15T00:49:10.919Z,-1.10
2018-12-15T00:51:37.651Z,-1.10
2018-12-15T00:54:04.354Z,-1.00
2018-12-15T00:56:31.084Z,-1.10
2018-12-15T00:58:57.878Z,-1.10
2018-12-15T01:01:24.607Z,-1.10
2018-12-15T01:03:52.614Z,-1.10
2018-12-15T01:06:19.351Z,-1.10
2018-12-15T01:08:46.069Z,-1.10
2018-12-15T01:11:12.766Z,-1.00
2018-12-15T01:13:39.502Z,-1.00
2018-12-15T01:16:06.202Z,-1.00
2018-12-15T01:18:32.930Z,-0.90
2018-12-15T01:20:59.651Z,-0.90
2018-12-15T01:23:26.352Z,-0.90
2018-12-15T01:25:53.282Z,-0.90
2018-12-15T01:28:19.979Z,-0.90
2018-12-15T01:30:46.719Z,-0.90
2018-12-15T01:33:13.419Z,-0.90
2018-12-15T01:35:40.151Z,-0.90
2018-12-15T01:38:07.074Z,-0.90
2018-12-15T01:40:33.807Z,-0.90
2018-12-15T01:43:00.506Z,-0.80
2018-12-15T01:45:27.251Z,-0.90
2018-12-15T01:47:53.947Z,-0.90
2018-12-15T01:50:20.699Z,-0.90
2018-12-15T01:52:47.403Z,-0.90
2018-12-15T01:55:14.134Z,-0.90
2018-12-15T01:57:40.838Z,-0.90
2018-12-15T02:00:07.606Z,-0.90
2018-12-15T02:02:34.306Z,-0.90
2018-12-15T02:05:01.062Z,-0.90
2018-12-15T02:07:27.771Z,-0.90
2018-12-15T02:09:54.491Z,-0.90
2018-12-15T02:12:21.179Z,-0.90
2018-12-15T02:14:47.901Z,-0.90
2018-12-15T02:17:14.590Z,-0.90
2018-12-15T02:19:41.314Z,-0.90
2018-12-15T02:22:08.014Z,-0.90
2018-12-15T02:24:34.738Z,-0.90
2018-12-15T02:27:01.438Z,-1.00
2018-12-15T02:29:29.034Z,-1.00
2018-12-15T02:31:55.762Z,-1.00
2018-12-15T02:34:22.465Z,-1.00
2018-12-15T02:36:49.197Z,-1.00
2018-12-15T02:39:15.918Z,-1.00
2018-12-15T02:41:47.188Z,-1.00
2018-12-15T02:44:11.362Z,-1.00
2018-12-15T02:46:38.094Z,-1.00
2018-12-15T02:49:04.798Z,-1.00
2018-12-15T02:51:31.639Z,-1.10
2018-12-15T02:53:58.329Z,-1.10
2018-12-15T02:56:25.059Z,-1.10
2018-12-15T02:58:51.764Z,-1.10
2018-12-15T03:01:18.486Z,-1.10
2018-12-15T03:03:45.182Z,-1.10
2018-12-15T03:06:11.909Z,-1.10
2018-12-15T03:08:38.607Z,-1.10
2018-12-15T03:11:05.342Z,-1.20
2018-12-15T03:13:32.171Z,-1.20
2018-12-15T03:15:58.903Z,-1.20
2018-12-15T03:18:25.626Z,-1.20
2018-12-15T03:20:58.810Z,-1.20
2018-12-15T03:23:25.509Z,-1.20
2018-12-15T03:25:52.230Z,-1.20
2018-12-15T03:28:19.067Z,-1.20
2018-12-15T03:30:45.804Z,-1.20
2018-12-15T03:35:46.219Z,-1.20
2018-12-15T03:38:12.916Z,-1.20
2018-12-15T03:40:47.465Z,-1.20
2018-12-15T03:43:14.163Z,-1.30
2018-12-15T03:45:40.882Z,-1.30
2018-12-15T03:48:07.578Z,-1.30
2018-12-15T03:50:35.003Z,-1.30
2018-12-15T03:53:01.710Z,-1.30
2018-12-15T03:55:28.438Z,-1.30
2018-12-15T03:57:55.138Z,-1.30
2018-12-15T04:00:21.856Z,-1.30
2018-12-15T04:02:48.770Z,-1.30
2018-12-15T04:05:15.466Z,-1.30
2018-12-15T04:07:42.211Z,-1.30
2018-12-15T04:10:08.909Z,-1.30
2018-12-15T04:12:35.648Z,-1.30
2018-12-15T04:15:02.408Z,-1.30
2018-12-15T04:17:29.426Z,-1.30
2018-12-15T04:19:56.236Z,-1.20
2018-12-15T04:22:22.959Z,-1.30
2018-12-15T04:24:56.644Z,-1.30
2018-12-15T04:27:23.371Z,-1.30
2018-12-15T04:29:50.062Z,-1.30
2018-12-15T04:32:16.785Z,-1.30
2018-12-15T04:34:43.485Z,-1.30
2018-12-15T04:37:10.214Z,-1.30
2018-12-15T04:39:36.906Z,-1.30
2018-12-15T04:42:03.629Z,-1.30
2018-12-15T04:44:30.327Z,-1.20
2018-12-15T04:46:57.369Z,-1.30
2018-12-15T04:49:24.070Z,-1.30
2018-12-15T04:51:50.802Z,-1.30
2018-12-15T04:54:17.503Z,-1.30
2018-12-15T04:56:44.227Z,-1.30
2018-12-15T04:59:17.779Z,-1.30
2018-12-15T05:01:44.708Z,-1.30
2018-12-15T05:04:11.406Z,-1.30
2018-12-15T05:06:38.230Z,-1.30
2018-12-15T05:09:05.398Z,-1.30
2018-12-15T05:11:32.123Z,-1.40
2018-12-15T05:13:58.842Z,-1.40
2018-12-15T05:16:25.563Z,-1.40
2018-12-15T05:18:52.275Z,-1.40
2018-12-15T05:21:18.995Z,-1.40
2018-12-15T05:23:45.892Z,-1.40
2018-12-15T05:26:12.591Z,-1.50
2018-12-15T05:28:39.307Z,-1.50
2018-12-15T05:31:06.030Z,-1.50
2018-12-15T05:33:32.748Z,-1.50
2018-12-15T05:35:59.491Z,-1.50
2018-12-15T05:38:26.202Z,-1.50
2018-12-15T05:40:59.747Z,-1.50
2018-12-15T05:43:26.465Z,-1.50
2018-12-15T05:45:53.162Z,-1.60
2018-12-15T05:48:25.196Z,-1.60
2018-12-15T05:50:49.054Z,-1.60
2018-12-15T05:53:15.781Z,-1.70
2018-12-15T05:55:42.471Z,-1.70
2018-12-15T05:58:09.198Z,-1.60
2018-12-15T06:00:36.098Z,-1.60
2018-12-15T06:03:02.818Z,-1.60
2018-12-15T06:05:29.625Z,-1.60
2018-12-15T06:07:56.494Z,-1.60
2018-12-15T06:10:23.186Z,-1.60
2018-12-15T06:12:49.911Z,-1.60
2018-12-15T06:15:16.604Z,-1.60
2018-12-15T06:17:43.322Z,-1.60
2018-12-15T06:20:10.014Z,-1.60
2018-12-15T06:22:36.737Z,-1.60
2018-12-15T06:25:03.432Z,-1.60
2018-12-15T06:27:30.189Z,-1.70
2018-12-15T06:29:56.887Z,-1.60
2018-12-15T06:32:23.610Z,-1.60
2018-12-15T06:34:50.315Z,-1.60
2018-12-15T06:37:17.042Z,-1.60
2018-12-15T06:39:50.667Z,-1.60
2018-12-15T06:42:17.454Z,-1.60
2018-12-15T06:44:44.143Z,-1.60
2018-12-15T06:47:10.857Z,-1.70
2018-12-15T06:49:37.666Z,-1.70
2018-12-15T06:52:04.466Z,-1.70
2018-12-15T06:54:31.219Z,-1.70
2018-12-15T06:56:57.914Z,-1.70
2018-12-15T06:59:25.038Z,-1.70
2018-12-15T07:01:51.935Z,-1.60
2018-12-15T07:04:18.655Z,-1.60
2018-12-15T07:06:45.350Z,-1.60
2018-12-15T07:09:12.094Z,-1.60
2018-12-15T07:11:38.794Z,-1.60
2018-12-15T07:14:05.525Z,-1.60
2018-12-15T07:16:32.234Z,-1.70
2018-12-15T07:18:58.950Z,-1.70
2018-12-15T07:21:25.646Z,-1.70
2018-12-15T07:23:52.361Z,-1.70
2018-12-15T07:26:19.050Z,-1.70
2018-12-15T07:28:45.774Z,-1.70
2018-12-15T07:31:12.470Z,-1.70
2018-12-15T07:33:39.182Z,-1.70
2018-12-15T07:36:05.879Z,-1.70
2018-12-15T07:38:32.616Z,-1.60
2018-12-15T07:40:59.322Z,-1.60
2018-12-15T07:43:26.140Z,-1.60
2018-12-15T07:45:52.835Z,-1.60
2018-12-15T07:48:19.559Z,-1.60
2018-12-15T07:50:46.257Z,-1.60
2018-12-15T07:53:13.006Z,-1.60
2018-12-15T07:55:39.699Z,-1.60
2018-12-15T07:58:06.424Z,-1.70
2018-12-15T08:00:33.114Z,-1.70
2018-12-15T08:02:59.839Z,-1.60
2018-12-15T08:05:26.550Z,-1.60
2018-12-15T08:07:53.502Z,-1.70
2018-12-15T08:10:23.550Z,-1.60
2018-12-15T08:12:56.589Z,-1.60
2018-12-15T08:15:23.494Z,-1.60
2018-12-15T08:17:50.217Z,-1.60
2018-12-15T08:20:16.922Z,-1.60
2018-12-15T08:22:43.718Z,-1.60
2018-12-15T08:25:10.678Z,-1.60
2018-12-15T08:27:37.402Z,-1.50
2018-12-15T08:30:05.127Z,-1.50
2018-12-15T08:32:31.822Z,-1.50
2018-12-15T08:34:58.558Z,-1.50
2018-12-15T08:37:25.387Z,-1.50
2018-12-15T08:39:52.126Z,-1.60
2018-12-15T08:42:18.827Z,-1.50
2018-12-15T08:44:45.562Z,-1.60
2018-12-15T08:47:12.278Z,-1.60
2018-12-15T08:49:39.014Z,-1.50
2018-12-15T08:52:05.750Z,-1.60
2018-12-15T08:54:32.479Z,-1.60
2018-12-15T08:56:59.174Z,-1.70
2018-12-15T08:59:25.899Z,-1.70
2018-12-15T09:01:52.598Z,-1.60
2018-12-15T09:04:19.330Z,-1.60
2018-12-15T09:06:46.040Z,-1.60
2018-12-15T09:09:12.768Z,-1.50
2018-12-15T09:11:39.466Z,-1.50
2018-12-15T09:14:06.205Z,-1.50
2018-12-15T09:16:32.907Z,-1.40
2018-12-15T09:18:59.639Z,-1.40
2018-12-15T09:21:26.337Z,-1.30
2018-12-15T09:23:53.266Z,-1.30
2018-12-15T09:26:20.839Z,-1.30
2018-12-15T09:28:47.962Z,-1.30
2018-12-15T09:31:14.674Z,-1.30
2018-12-15T09:33:41.402Z,-1.30
2018-12-15T09:36:08.194Z,-1.40
2018-12-15T09:38:34.931Z,-1.30
2018-12-15T09:41:01.665Z,-1.30
2018-12-15T09:43:28.406Z,-1.40
2018-12-15T09:45:55.110Z,-1.40
2018-12-15T09:48:21.833Z,-1.30
2018-12-15T09:50:48.578Z,-1.40
2018-12-15T09:53:15.415Z,-1.30
2018-12-15T09:55:42.120Z,-1.30
2018-12-15T09:58:08.854Z,-1.40
2018-12-15T10:00:35.554Z,-1.40
2018-12-15T10:03:02.254Z,-1.30
2018-12-15T10:05:28.982Z,-1.30
2018-12-15T10:07:55.683Z,-1.30
2018-12-15T10:10:22.415Z,-1.30
2018-12-15T10:12:49.132Z,-1.30
2018-12-15T10:15:15.873Z,-1.20
2018-12-15T10:17:42.574Z,-1.20
2018-12-15T10:20:09.302Z,-1.20
2018-12-15T10:22:36.001Z,-1.20
2018-12-15T10:25:02.730Z,-1.10
2018-12-15T10:27:29.452Z,-1.00
2018-12-15T10:30:02.061Z,-1.10
2018-12-15T10:32:34.542Z,-1.10
2018-12-15T10:35:01.275Z,-1.20
2018-12-15T10:37:27.979Z,-1.20
2018-12-15T10:39:54.722Z,-1.20
2018-12-15T10:42:21.424Z,-1.20
2018-12-15T10:44:48.147Z,-1.10
2018-12-15T10:47:14.870Z,-1.10
2018-12-15T10:49:41.599Z,-1.10
2018-12-15T10:52:08.307Z,-1.30
2018-12-15T10:54:35.041Z,-1.30
2018-12-15T10:57:01.735Z,-1.30
2018-12-15T10:59:28.458Z,-1.20
2018-12-15T11:01:55.354Z,-1.20
2018-12-15T11:04:22.078Z,-1.10
2018-12-15T11:06:48.778Z,-1.10
2018-12-15T11:09:15.515Z,-1.00
2018-12-15T11:11:42.214Z,-1.00
2018-12-15T11:14:08.960Z,-1.00
2018-12-15T11:16:36.462Z,-1.00
2018-12-15T11:19:03.198Z,-0.90
2018-12-15T11:21:29.911Z,-0.90
2018-12-15T11:23:56.636Z,-0.90
2018-12-15T11:26:23.339Z,-0.90
2018-12-15T11:28:50.066Z,-0.90
2018-12-15T11:31:16.806Z,-0.90
2018-12-15T11:33:43.508Z,-0.80
2018-12-15T11:36:10.234Z,-0.80
2018-12-15T11:38:36.939Z,-0.80
2018-12-15T11:41:03.671Z,-0.80
2018-12-15T11:43:30.365Z,-0.70
2018-12-15T11:45:57.082Z,-0.90
2018-12-15T11:48:23.806Z,-1.00
2018-12-15T11:50:50.522Z,-0.90
2018-12-15T11:53:17.414Z,-1.00
2018-12-15T11:55:44.648Z,-1.10
2018-12-15T11:58:11.558Z,-1.00
2018-12-15T12:00:38.393Z,-0.90
2018-12-15T12:03:05.094Z,-0.90
2018-12-15T12:05:31.819Z,-0.90
2018-12-15T12:07:58.514Z,-0.90
2018-12-15T12:10:25.267Z,-0.90
2018-12-15T12:12:51.962Z,-1.00
2018-12-15T12:15:18.697Z,-1.00
2018-12-15T12:17:45.922Z,-0.90
2018-12-15T12:20:12.642Z,-0.90
2018-12-15T12:22:39.534Z,-0.90
2018-12-15T12:25:06.254Z,-0.90
2018-12-15T12:27:33.310Z,-0.90
2018-12-15T12:30:00.521Z,-0.90
2018-12-15T12:32:27.761Z,-0.90
2018-12-15T12:34:54.491Z,-0.90
2018-12-15T12:37:21.443Z,-0.80
2018-12-15T12:39:48.163Z,-0.70
2018-12-15T12:42:14.886Z,-0.70
2018-12-15T12:44:41.615Z,-0.70
2018-12-15T12:47:08.346Z,-0.70
2018-12-15T12:49:35.163Z,-0.70
2018-12-15T12:52:01.870Z,-0.70
2018-12-15T12:54:28.598Z,-0.80
2018-12-15T12:56:55.290Z,-0.80
2018-12-15T12:59:22.015Z,-0.80
2018-12-15T13:01:48.710Z,-0.80
2018-12-15T13:04:15.439Z,-0.80
2018-12-15T13:06:42.143Z,-0.80
2018-12-15T13:09:08.866Z,-0.80
2018-12-15T13:11:35.558Z,-0.90
2018-12-15T13:14:02.291Z,-0.90
2018-12-15T13:16:28.993Z,-0.90
2018-12-15T13:18:56.075Z,-1.00
2018-12-15T13:24:11.728Z,-0.90
2018-12-15T13:26:44.594Z,-1.00
2018-12-15T13:29:17.334Z,-0.90
2018-12-15T13:31:44.074Z,-0.90
2018-12-15T13:34:10.825Z,-0.90
2018-12-15T13:36:37.538Z,-1.00
2018-12-15T13:39:04.426Z,-1.00
2018-12-15T13:41:31.191Z,-1.00
2018-12-15T13:43:57.930Z,-1.00
2018-12-15T13:46:24.682Z,-1.00
2018-12-15T13:48:53.475Z,-1.00
2018-12-15T13:51:20.255Z,-1.00
2018-12-15T13:53:47.471Z,-1.00
2018-12-15T13:56:14.289Z,-1.00
2018-12-15T13:58:42.039Z,-1.10
2018-12-15T14:01:08.803Z,-1.10
2018-12-15T14:03:35.514Z,-1.10
2018-12-15T14:06:02.269Z,-1.10
2018-12-15T14:08:29.030Z,-1.10
2018-12-15T14:10:55.802Z,-1.10
2018-12-15T14:13:22.654Z,-1.10
2018-12-15T14:15:49.433Z,-1.10
2018-12-15T14:18:16.218Z,-1.10
2018-12-15T14:20:42.986Z,-1.10
2018-12-15T14:23:10.118Z,-1.10
2018-12-15T14:25:36.879Z,-1.10
2018-12-15T14:28:03.614Z,-1.20
2018-12-15T14:30:30.358Z,-1.20
2018-12-15T14:32:57.382Z,-1.20
2018-12-15T14:35:24.115Z,-1.30
2018-12-15T14:37:50.852Z,-1.30
2018-12-15T14:40:17.605Z,-1.30
2018-12-15T14:42:44.311Z,-1.40
2018-12-15T14:45:11.078Z,-1.40
2018-12-15T14:47:37.827Z,-1.40
2018-12-15T14:50:04.598Z,-1.30
2018-12-15T14:52:31.324Z,-1.30
2018-12-15T14:54:58.090Z,-1.40
2018-12-15T14:57:24.850Z,-1.40
2018-12-15T14:59:51.723Z,-1.40
2018-12-15T15:02:18.468Z,-1.50
2018-12-15T15:04:45.222Z,-1.50
2018-12-15T15:07:12.035Z,-1.50
2018-12-15T15:09:38.792Z,-1.50
2018-12-15T15:12:05.535Z,-1.40
2018-12-15T15:14:32.298Z,-1.40
2018-12-15T15:16:59.049Z,-1.40
2018-12-15T15:19:25.762Z,-1.40
2018-12-15T15:21:52.541Z,-1.30
2018-12-15T15:24:19.265Z,-1.40
2018-12-15T15:26:46.010Z,-1.40
2018-12-15T15:29:12.794Z,-1.40
2018-12-15T15:31:39.540Z,-1.40
2018-12-15T15:34:06.276Z,-1.50
2018-12-15T15:36:33.131Z,-1.50
2018-12-15T15:38:59.856Z,-1.60
2018-12-15T15:41:26.607Z,-1.60
2018-12-15T15:43:53.403Z,-1.60
2018-12-15T15:46:20.167Z,-1.60
2018-12-15T15:48:46.894Z,-1.60
2018-12-15T15:51:13.642Z,-1.60
2018-12-15T15:53:40.380Z,-1.60
2018-12-15T15:56:07.157Z,-1.60
2018-12-15T15:58:33.887Z,-1.60
2018-12-15T16:01:00.645Z,-1.50
2018-12-15T16:03:27.370Z,-1.60
2018-12-15T16:05:54.138Z,-1.60
2018-12-15T16:08:20.907Z,-1.60
2018-12-15T16:10:47.666Z,-1.60
2018-12-15T16:13:14.386Z,-1.60
2018-12-15T16:15:41.162Z,-1.60
2018-12-15T16:18:07.895Z,-1.70
2018-12-15T16:20:53.195Z,-1.60
2018-12-15T16:23:19.922Z,-1.60
2018-12-15T16:25:46.662Z,-1.70
2018-12-15T16:28:13.391Z,-1.60
2018-12-15T16:30:40.159Z,-1.60
2018-12-15T16:33:06.886Z,-1.70
2018-12-15T16:35:33.610Z,-1.70
2018-12-15T16:38:00.351Z,-1.70
2018-12-15T16:40:27.079Z,-1.70
2018-12-15T16:42:53.822Z,-1.70
2018-12-15T16:45:20.895Z,-1.70
2018-12-15T16:47:47.650Z,-1.70
2018-12-15T16:50:14.371Z,-1.70
2018-12-15T16:52:41.526Z,-1.80
2018-12-15T16:55:08.477Z,-1.80
2018-12-15T16:57:35.235Z,-1.80
2018-12-15T17:00:01.962Z,-1.80
2018-12-15T17:02:28.741Z,-1.80
2018-12-15T17:04:55.486Z,-1.80
2018-12-15T17:07:22.366Z,-1.80
2018-12-15T17:09:49.116Z,-1.80
2018-12-15T17:12:15.859Z,-1.80
2018-12-15T17:14:42.671Z,-1.80
2018-12-15T17:17:09.442Z,-1.80
2018-12-15T17:19:36.171Z,-1.90
2018-12-15T17:22:02.919Z,-1.80
2018-12-15T17:24:29.639Z,-1.80
2018-12-15T17:26:56.410Z,-1.80
2018-12-15T17:29:23.410Z,-1.80
2018-12-15T17:31:50.158Z,-1.80
2018-12-15T17:34:16.875Z,-1.80
2018-12-15T17:36:43.632Z,-1.80
2018-12-15T17:39:10.573Z,-1.80
2018-12-15T17:41:37.314Z,-1.90
2018-12-15T17:44:04.043Z,-1.80
2018-12-15T17:46:30.797Z,-1.80
2018-12-15T17:48:58.571Z,-1.80
2018-12-15T17:51:25.371Z,-1.80
2018-12-15T17:53:52.106Z,-1.80
2018-12-15T17:56:18.955Z,-1.80
2018-12-15T17:58:45.718Z,-1.80
2018-12-15T18:01:12.601Z,-1.80
2018-12-15T18:03:39.335Z,-1.80
2018-12-15T18:06:06.097Z,-1.80
2018-12-15T18:08:33.118Z,-1.80
2018-12-15T18:10:59.891Z,-1.80
2018-12-15T18:13:26.640Z,-1.80
2018-12-15T18:15:53.371Z,-1.80
2018-12-15T18:18:20.197Z,-1.80
2018-12-15T18:20:47.426Z,-1.80
2018-12-15T18:23:14.179Z,-1.90
2018-12-15T18:25:40.914Z,-1.90
2018-12-15T18:28:07.675Z,-2.00
2018-12-15T18:30:34.412Z,-2.10
2018-12-15T18:33:01.181Z,-2.10
2018-12-15T18:35:28.053Z,-2.20
2018-12-15T18:37:54.808Z,-2.20
2018-12-15T18:40:21.542Z,-2.30
2018-12-15T18:42:48.343Z,-2.40
2018-12-15T18:45:15.066Z,-2.50
2018-12-15T18:47:41.829Z,-2.60
2018-12-15T18:50:08.674Z,-2.70
2018-12-15T18:52:35.452Z,-2.80
2018-12-15T18:55:02.187Z,-2.70
2018-12-15T18:57:28.971Z,-2.60
2018-12-15T18:59:55.711Z,-2.50
2018-12-15T19:02:22.495Z,-2.40
2018-12-15T19:04:49.322Z,-2.30
2018-12-15T19:07:16.079Z,-2.30
2018-12-15T19:09:42.924Z,-2.30
2018-12-15T19:12:09.678Z,-2.30
2018-12-15T19:14:36.426Z,-2.30
2018-12-15T19:17:03.196Z,-2.30
2018-12-15T19:19:29.922Z,-2.30
2018-12-15T19:21:56.716Z,-2.30
2018-12-15T19:24:23.499Z,-2.20
2018-12-15T19:26:50.267Z,-2.20
2018-12-15T19:29:16.986Z,-2.20
2018-12-15T19:31:43.738Z,-2.20
2018-12-15T19:34:10.485Z,-2.20
2018-12-15T19:36:37.267Z,-2.30
2018-12-15T19:39:05.518Z,-2.30
2018-12-15T19:41:32.266Z,-2.30
2018-12-15T19:43:59.011Z,-2.40
2018-12-15T19:46:25.759Z,-2.40
2018-12-15T19:48:52.527Z,-2.40
2018-12-15T19:51:19.251Z,-2.40
2018-12-15T19:53:47.615Z,-2.40
2018-12-15T19:56:14.482Z,-2.40
2018-12-15T19:58:41.319Z,-2.40
2018-12-15T20:01:08.147Z,-2.40
2018-12-15T20:03:34.997Z,-2.40
2018-12-15T20:06:01.758Z,-2.40
2018-12-15T20:08:28.685Z,-2.40
2018-12-15T20:10:55.422Z,-2.40
2018-12-15T20:13:22.174Z,-2.50
2018-12-15T20:15:48.943Z,-2.50
2018-12-15T20:18:15.689Z,-2.40
2018-12-15T20:20:42.540Z,-2.40
2018-12-15T20:23:09.299Z,-2.40
2018-12-15T20:25:36.066Z,-2.40
2018-12-15T20:28:02.925Z,-2.40
2018-12-15T20:30:29.733Z,-2.40
2018-12-15T20:32:56.520Z,-2.40
2018-12-15T20:35:23.296Z,-2.40
2018-12-15T20:37:50.063Z,-2.30
2018-12-15T20:40:16.816Z,-2.30
2018-12-15T20:42:43.688Z,-2.40
2018-12-15T20:45:10.542Z,-2.40
2018-12-15T20:47:37.402Z,-2.40
2018-12-15T20:50:04.543Z,-2.40
2018-12-15T20:52:31.300Z,-2.40
2018-12-15T20:54:58.027Z,-2.40
2018-12-15T20:57:24.870Z,-2.40
2018-12-15T20:59:51.621Z,-2.40
2018-12-15T21:02:18.386Z,-2.40
2018-12-15T21:04:45.119Z,-2.40
2018-12-15T21:07:11.873Z,-2.40
2018-12-15T21:09:38.611Z,-2.40
2018-12-15T21:12:05.394Z,-2.30
2018-12-15T21:14:32.195Z,-2.30
2018-12-15T21:16:58.976Z,-2.40
2018-12-15T21:19:25.721Z,-2.30
2018-12-15T21:21:52.498Z,-2.40
2018-12-15T21:24:19.270Z,-2.40
2018-12-15T21:26:45.994Z,-2.40
2018-12-15T21:29:12.762Z,-2.40
2018-12-15T21:31:39.484Z,-2.40
2018-12-15T21:34:08.026Z,-2.40
2018-12-15T21:36:34.998Z,-2.40
2018-12-15T21:39:01.963Z,-2.40
2018-12-15T21:41:28.710Z,-2.40
2018-12-15T21:43:55.467Z,-2.40
2018-12-15T21:46:22.202Z,-2.40
2018-12-15T21:48:49.010Z,-2.40
2018-12-15T21:51:15.939Z,-2.40
2018-12-15T21:53:42.687Z,-2.40
2018-12-15T21:56:09.414Z,-2.30
2018-12-15T21:58:36.164Z,-2.30
2018-12-15T22:01:02.887Z,-2.30
2018-12-15T22:03:29.630Z,-2.30
2018-12-15T22:05:56.359Z,-2.30
2018-12-15T22:08:23.158Z,-2.20
2018-12-15T22:10:49.900Z,-2.20
2018-12-15T22:13:16.692Z,-2.20
2018-12-15T22:15:43.451Z,-2.20
2018-12-15T22:18:10.205Z,-2.20
2018-12-15T22:20:37.139Z,-2.20
2018-12-15T22:23:03.894Z,-2.20
2018-12-15T22:25:30.622Z,-2.20
2018-12-15T22:27:57.393Z,-2.10
2018-12-15T22:30:24.108Z,-2.10
2018-12-15T22:32:50.863Z,-2.10
2018-12-15T22:35:18.097Z,-2.10
2018-12-15T22:37:44.847Z,-2.10
2018-12-15T22:40:12.969Z,-2.10
2018-12-15T22:42:39.960Z,-2.10
2018-12-15T22:45:06.679Z,-2.10
2018-12-15T22:47:33.445Z,-2.10
2018-12-15T22:50:00.207Z,-2.10
2018-12-15T22:52:26.952Z,-2.10
2018-12-15T22:54:53.683Z,-2.10
2018-12-15T22:57:20.439Z,-2.10
2018-12-15T22:59:47.183Z,-2.20
2018-12-15T23:02:13.922Z,-2.10
2018-12-15T23:04:40.679Z,-2.10
2018-12-15T23:07:07.537Z,-2.10
2018-12-15T23:09:34.293Z,-2.10
2018-12-15T23:12:01.014Z,-2.10
2018-12-15T23:14:27.805Z,-2.10
2018-12-15T23:16:54.543Z,-2.20
2018-12-15T23:19:21.289Z,-2.20
2018-12-15T23:21:47.998Z,-2.20
2018-12-15T23:24:14.838Z,-2.20
2018-12-15T23:26:41.573Z,-2.20
2018-12-15T23:29:08.343Z,-2.20
2018-12-15T23:31:35.082Z,-2.20
2018-12-15T23:34:01.826Z,-2.10
2018-12-15T23:36:28.548Z,-2.20
2018-12-15T23:38:55.318Z,-2.10
2018-12-15T23:41:22.040Z,-2.10
2018-12-15T23:43:48.814Z,-2.20
2018-12-15T23:46:15.655Z,-2.20
2018-12-15T23:48:42.403Z,-2.20
2018-12-15T23:51:09.150Z,-2.20
2018-12-15T23:53:35.962Z,-2.20
2018-12-15T23:56:02.691Z,-2.10
2018-12-15T23:58:29.463Z,-2.20
